createdAt,value
2022-11-19T00:02:25.239Z,39.13
2022-11-19T00:04:53.858Z,42.40
2022-11-19T00:07:22.513Z,41.07
2022-11-19T00:09:51.313Z,35.97
2022-11-19T00:12:38.102Z,36.23
2022-11-19T00:15:07.817Z,37.93
2022-11-19T00:17:38.055Z,36.97
2022-11-19T00:20:07.272Z,42.30
2022-11-19T00:22:35.873Z,48.40
2022-11-19T00:25:05.064Z,61.53
2022-11-19T00:27:35.221Z,39.57
2022-11-19T00:30:10.965Z,57.00
2022-11-19T00:32:50.538Z,45.63
2022-11-19T00:35:19.419Z,38.13
2022-11-19T00:37:48.078Z,51.03
2022-11-19T00:40:20.354Z,49.10
2022-11-19T00:43:02.664Z,43.73
2022-11-19T00:45:34.367Z,49.07
2022-11-19T00:48:04.615Z,47.87
2022-11-19T00:50:35.144Z,50.63
2022-11-19T00:53:04.176Z,47.23
2022-11-19T00:55:35.475Z,46.47
2022-11-19T00:58:05.611Z,51.00
2022-11-19T01:00:35.806Z,60.03
2022-11-19T01:03:10.937Z,54.97
2022-11-19T01:05:46.171Z,53.20
2022-11-19T01:08:19.292Z,53.23
2022-11-19T01:10:48.159Z,53.57
2022-11-19T01:13:38.741Z,57.87
2022-11-19T01:16:11.298Z,58.50
2022-11-19T01:18:47.387Z,47.60
2022-11-19T01:21:19.551Z,46.50
2022-11-19T01:23:53.120Z,48.90
2022-11-19T01:26:25.456Z,47.40
2022-11-19T01:28:56.714Z,49.40
2022-11-19T01:31:27.887Z,56.60
2022-11-19T01:34:02.065Z,58.27
2022-11-19T01:36:34.890Z,58.87
2022-11-19T01:39:03.588Z,57.83
2022-11-19T01:41:36.557Z,57.90
2022-11-19T01:44:12.323Z,40.40
2022-11-19T01:46:42.200Z,36.70
2022-11-19T01:49:22.226Z,39.10
2022-11-19T01:52:00.301Z,40.40
2022-11-19T01:54:41.529Z,44.10
2022-11-19T01:57:19.984Z,43.63
2022-11-19T01:59:57.853Z,41.53
2022-11-19T02:02:33.873Z,41.83
2022-11-19T02:05:11.515Z,42.33
2022-11-19T02:07:49.382Z,43.30
2022-11-19T02:10:29.245Z,42.47
2022-11-19T02:13:17.294Z,43.43
2022-11-19T02:16:00.469Z,43.53
2022-11-19T02:18:50.469Z,41.57
2022-11-19T02:21:37.994Z,42.33
2022-11-19T02:24:53.111Z,48.73
2022-11-19T02:28:04.349Z,42.40
2022-11-19T02:30:46.331Z,43.03
2022-11-19T02:33:24.479Z,42.73
2022-11-19T02:36:03.148Z,44.43
2022-11-19T02:38:43.987Z,45.70
2022-11-19T02:41:40.105Z,46.10
2022-11-19T02:44:40.590Z,40.17
2022-11-19T02:47:17.484Z,41.97
2022-11-19T02:49:53.176Z,44.00
2022-11-19T02:52:28.258Z,44.80
2022-11-19T02:55:02.930Z,46.13
2022-11-19T02:57:34.983Z,42.77
2022-11-19T03:00:33.776Z,37.10
2022-11-19T03:03:27.541Z,44.00
2022-11-19T03:06:03.327Z,39.33
2022-11-19T03:08:32.056Z,35.47
2022-11-19T03:11:17.723Z,38.30
2022-11-19T03:14:14.921Z,40.10
2022-11-19T03:16:50.993Z,39.93
2022-11-19T03:19:35.111Z,37.57
2022-11-19T03:22:11.903Z,38.23
2022-11-19T03:24:49.286Z,36.97
2022-11-19T03:27:26.842Z,36.60
2022-11-19T03:30:00.419Z,44.17
2022-11-19T03:32:37.824Z,36.77
2022-11-19T03:35:19.542Z,43.07
2022-11-19T03:37:56.959Z,37.10
2022-11-19T03:40:31.797Z,40.47
2022-11-19T03:43:08.968Z,42.77
2022-11-19T03:45:48.236Z,42.87
2022-11-19T03:48:26.159Z,52.30
2022-11-19T03:51:04.877Z,48.50
2022-11-19T03:53:35.720Z,43.63
2022-11-19T03:56:10.268Z,46.83
2022-11-19T03:58:41.081Z,43.93
2022-11-19T04:01:11.891Z,43.80
2022-11-19T04:03:40.860Z,37.70
2022-11-19T04:06:14.176Z,40.27
2022-11-19T04:08:45.693Z,42.17
2022-11-19T04:13:50.104Z,36.10
2022-11-19T04:16:20.738Z,31.83
2022-11-19T04:18:51.188Z,28.47
2022-11-19T04:21:23.950Z,34.77
2022-11-19T04:23:54.022Z,30.90
2022-11-19T04:26:22.641Z,31.10
2022-11-19T04:28:52.160Z,32.67
2022-11-19T04:31:22.799Z,29.90
2022-11-19T04:33:56.532Z,30.00
2022-11-19T04:36:27.639Z,26.63
2022-11-19T04:38:58.200Z,30.63
2022-11-19T04:41:30.298Z,26.67
2022-11-19T04:43:59.822Z,26.53
2022-11-19T04:46:30.085Z,25.13
2022-11-19T04:49:00.702Z,28.03
2022-11-19T04:51:36.638Z,23.20
2022-11-19T04:54:10.204Z,23.53
2022-11-19T04:56:41.658Z,24.87
2022-11-19T04:59:13.348Z,23.70
2022-11-19T05:01:43.808Z,23.07
2022-11-19T05:04:15.996Z,23.77
2022-11-19T05:06:48.429Z,26.00
2022-11-19T05:09:19.568Z,25.90
2022-11-19T05:11:50.551Z,22.70
2022-11-19T05:14:19.207Z,24.43
2022-11-19T05:16:50.607Z,26.13
2022-11-19T05:19:20.528Z,25.10
2022-11-19T05:21:53.009Z,23.50
2022-11-19T05:24:21.632Z,24.47
2022-11-19T05:26:50.251Z,22.50
2022-11-19T05:29:20.018Z,21.80
2022-11-19T05:31:50.622Z,21.27
2022-11-19T05:34:20.137Z,24.47
2022-11-19T05:36:52.509Z,26.73
2022-11-19T05:39:27.688Z,26.40
2022-11-19T05:41:59.060Z,27.10
2022-11-19T05:44:30.046Z,92.07
2022-11-19T05:47:00.276Z,87.57
2022-11-19T05:49:30.999Z,75.27
2022-11-19T05:52:01.930Z,56.63
2022-11-19T05:54:32.242Z,62.60
2022-11-19T05:57:09.510Z,54.93
2022-11-19T05:59:43.825Z,62.27
2022-11-19T06:02:17.277Z,54.77
2022-11-19T06:04:47.552Z,61.00
2022-11-19T06:07:19.419Z,53.43
2022-11-19T06:09:51.183Z,47.70
2022-11-19T06:12:23.184Z,49.50
2022-11-19T06:14:54.097Z,49.60
2022-11-19T06:17:25.903Z,44.50
2022-11-19T06:19:55.974Z,53.30
2022-11-19T06:22:29.645Z,58.93
2022-11-19T06:24:58.236Z,54.73
2022-11-19T06:27:27.431Z,55.57
2022-11-19T06:29:58.898Z,55.87
2022-11-19T06:32:31.111Z,48.90
2022-11-19T06:35:02.586Z,48.40
2022-11-19T06:37:37.590Z,57.70
2022-11-19T06:40:10.136Z,56.97
2022-11-19T06:42:39.755Z,76.67
2022-11-19T06:45:12.381Z,58.87
2022-11-19T06:47:43.019Z,62.40
2022-11-19T06:50:14.580Z,68.23
2022-11-19T06:52:49.401Z,60.90
2022-11-19T06:55:18.800Z,65.40
2022-11-19T06:57:49.252Z,65.87
2022-11-19T07:00:19.828Z,70.77
2022-11-19T07:02:48.879Z,77.53
2022-11-19T07:05:20.389Z,83.57
2022-11-19T07:08:02.651Z,76.00
2022-11-19T07:10:39.793Z,74.00
2022-11-19T07:13:15.378Z,65.83
2022-11-19T07:15:50.534Z,68.27
2022-11-19T07:18:24.993Z,74.43
2022-11-19T07:20:55.147Z,82.80
2022-11-19T07:23:36.107Z,86.03
2022-11-19T07:26:08.334Z,72.73
2022-11-19T07:28:41.621Z,79.63
2022-11-19T07:31:38.895Z,77.37
2022-11-19T07:34:13.224Z,66.93
2022-11-19T07:36:42.592Z,81.90
2022-11-19T07:39:13.849Z,109.25
2022-11-19T07:42:00.564Z,110.50
2022-11-19T07:44:29.741Z,33.88
2022-11-19T07:46:58.475Z,152.10
2022-11-19T07:49:27.670Z,148.43
2022-11-19T07:51:58.359Z,116.10
2022-11-19T07:54:31.831Z,115.27
2022-11-19T07:57:01.196Z,113.20
2022-11-19T07:59:31.595Z,122.47
2022-11-19T08:02:01.962Z,115.97
2022-11-19T08:04:33.020Z,106.43
2022-11-19T08:07:04.277Z,97.77
2022-11-19T08:09:38.276Z,132.47
2022-11-19T08:12:10.948Z,126.27
2022-11-19T08:14:43.046Z,111.67
2022-11-19T08:17:30.286Z,28.83
2022-11-19T08:19:58.949Z,121.73
2022-11-19T08:22:31.189Z,124.57
2022-11-19T08:25:10.124Z,143.13
2022-11-19T08:27:44.272Z,133.50
2022-11-19T08:30:14.528Z,123.97
2022-11-19T08:32:43.869Z,25.45
2022-11-19T08:35:12.525Z,107.07
2022-11-19T08:37:41.444Z,118.87
2022-11-19T08:40:12.628Z,110.33
2022-11-19T08:42:58.845Z,88.27
2022-11-19T08:45:28.723Z,63.13
2022-11-19T08:47:58.379Z,65.47
2022-11-19T08:50:27.582Z,77.00
2022-11-19T08:52:58.057Z,67.47
2022-11-19T08:55:29.939Z,73.07
2022-11-19T08:58:02.949Z,111.07
2022-11-19T09:00:32.886Z,108.17
2022-11-19T09:03:01.745Z,131.27
2022-11-19T09:05:30.463Z,92.87
2022-11-19T09:07:59.161Z,74.80
2022-11-19T09:10:29.628Z,58.27
2022-11-19T09:12:58.311Z,54.00
2022-11-19T09:15:27.144Z,62.73
2022-11-19T09:17:55.725Z,108.13
2022-11-19T09:20:24.900Z,102.63
2022-11-19T09:22:53.567Z,61.37
2022-11-19T09:25:22.339Z,63.63
2022-11-19T09:27:52.857Z,71.43
2022-11-19T09:30:21.701Z,71.93
2022-11-19T09:32:50.465Z,65.77
2022-11-19T09:35:19.416Z,72.37
2022-11-19T09:37:48.063Z,72.63
2022-11-19T09:40:20.799Z,57.97
2022-11-19T09:43:05.997Z,60.33
2022-11-19T09:45:47.655Z,74.30
2022-11-19T09:48:29.598Z,59.00
2022-11-19T09:51:02.100Z,61.87
2022-11-19T09:53:36.077Z,53.27
2022-11-19T09:56:04.721Z,46.97
2022-11-19T09:58:39.329Z,122.77
2022-11-19T10:01:08.437Z,151.00
2022-11-19T10:03:40.017Z,176.07
2022-11-19T10:06:26.940Z,157.83
2022-11-19T10:09:20.732Z,63.37
2022-11-19T10:12:00.330Z,51.93
2022-11-19T10:14:46.503Z,70.40
2022-11-19T10:17:23.586Z,58.67
2022-11-19T10:20:08.381Z,86.87
2022-11-19T10:22:40.998Z,109.53
2022-11-19T10:25:19.180Z,120.87
2022-11-19T10:27:52.447Z,142.00
2022-11-19T10:30:24.606Z,146.20
2022-11-19T10:32:58.903Z,131.37
2022-11-19T10:35:31.837Z,147.00
2022-11-19T10:38:03.483Z,138.27
2022-11-19T10:40:42.020Z,128.50
2022-11-19T10:43:23.401Z,138.03
2022-11-19T10:45:53.751Z,134.57
2022-11-19T10:48:25.266Z,135.90
2022-11-19T10:50:56.508Z,130.97
2022-11-19T10:53:29.466Z,117.97
2022-11-19T10:56:01.194Z,120.40
2022-11-19T10:58:33.793Z,118.13
2022-11-19T11:01:06.829Z,135.23
2022-11-19T11:03:47.132Z,128.23
2022-11-19T11:06:15.793Z,122.70
2022-11-19T11:08:52.551Z,125.23
2022-11-19T11:11:26.258Z,117.40
2022-11-19T11:14:26.948Z,129.93
2022-11-19T11:17:25.322Z,125.97
2022-11-19T11:20:04.152Z,135.35
2022-11-19T11:22:34.245Z,75.60
2022-11-19T11:25:22.855Z,118.50
2022-11-19T11:28:06.802Z,101.77
2022-11-19T11:30:36.293Z,80.87
2022-11-19T11:33:32.027Z,96.20
2022-11-19T11:36:05.246Z,120.80
2022-11-19T11:38:41.232Z,90.37
2022-11-19T11:41:56.413Z,73.43
2022-11-19T11:44:04.321Z,93.57
2022-11-19T11:46:39.720Z,79.93
2022-11-19T11:49:22.533Z,62.10
2022-11-19T11:51:59.127Z,127.47
2022-11-19T11:54:27.921Z,62.23
2022-11-19T11:57:16.011Z,124.13
2022-11-19T11:59:45.277Z,85.27
2022-11-19T12:02:22.770Z,80.53
2022-11-19T12:04:54.880Z,55.73
2022-11-19T12:07:43.640Z,70.17
2022-11-19T12:10:25.226Z,85.83
2022-11-19T12:13:13.062Z,58.40
2022-11-19T12:15:53.895Z,41.87
2022-11-19T12:18:31.093Z,54.27
2022-11-19T12:21:11.499Z,58.60
2022-11-19T12:24:09.441Z,50.77
2022-11-19T12:26:46.881Z,62.33
2022-11-19T12:29:26.124Z,91.00
2022-11-19T12:32:10.654Z,60.07
2022-11-19T12:35:15.141Z,54.10
2022-11-19T12:38:05.084Z,91.03
2022-11-19T12:40:43.703Z,75.27
2022-11-19T12:43:24.581Z,63.10
2022-11-19T12:46:01.407Z,123.13
2022-11-19T12:48:55.715Z,154.37
2022-11-19T12:51:35.083Z,168.07
2022-11-19T12:54:30.199Z,135.73
2022-11-19T12:57:18.062Z,141.53
2022-11-19T13:00:06.328Z,168.03
2022-11-19T13:02:41.969Z,108.63
2022-11-19T13:05:18.418Z,103.10
2022-11-19T13:07:53.345Z,103.40
2022-11-19T13:10:27.727Z,122.57
2022-11-19T13:12:58.438Z,123.77
2022-11-19T13:15:33.145Z,141.30
2022-11-19T13:18:05.036Z,159.40
2022-11-19T13:20:55.059Z,135.20
2022-11-19T13:23:28.780Z,104.70
2022-11-19T13:26:03.814Z,82.90
2022-11-19T13:28:38.991Z,80.47
2022-11-19T13:31:14.392Z,84.60
2022-11-19T13:33:50.739Z,121.07
2022-11-19T13:36:25.572Z,85.07
2022-11-19T13:38:58.485Z,117.50
2022-11-19T13:41:32.616Z,74.93
2022-11-19T13:44:18.886Z,77.20
2022-11-19T13:46:51.200Z,65.17
2022-11-19T13:49:24.888Z,93.93
2022-11-19T13:51:57.292Z,152.93
2022-11-19T13:54:28.075Z,198.77
2022-11-19T13:56:59.543Z,180.50
2022-11-19T13:59:33.075Z,168.47
2022-11-19T14:02:15.327Z,140.77
2022-11-19T14:05:03.060Z,140.47
2022-11-19T14:07:44.009Z,183.17
2022-11-19T14:10:24.142Z,169.80
2022-11-19T14:13:09.894Z,196.57
2022-11-19T14:16:10.541Z,180.57
2022-11-19T14:18:59.468Z,228.23
2022-11-19T14:22:05.543Z,232.27
2022-11-19T14:25:16.301Z,208.93
2022-11-19T14:27:46.245Z,124.67
2022-11-19T14:30:45.381Z,40.73
2022-11-19T14:33:58.792Z,45.63
2022-11-19T14:36:58.022Z,77.30
2022-11-19T14:39:33.701Z,55.90
2022-11-19T14:42:15.924Z,41.27
2022-11-19T14:44:45.366Z,45.53
2022-11-19T14:47:34.476Z,66.78
2022-11-19T14:50:19.473Z,58.73
2022-11-19T14:52:53.923Z,33.25
2022-11-19T14:55:24.529Z,162.37
2022-11-19T14:57:59.896Z,104.30
2022-11-19T15:00:32.398Z,41.87
2022-11-19T15:03:04.204Z,41.00
2022-11-19T15:05:36.211Z,43.10
2022-11-19T15:08:41.194Z,49.97
2022-11-19T15:11:12.477Z,64.67
2022-11-19T15:13:41.891Z,75.90
2022-11-19T15:16:13.047Z,92.10
2022-11-19T15:19:08.259Z,103.47
2022-11-19T15:22:10.984Z,113.45
2022-11-19T15:25:12.491Z,130.53
2022-11-19T15:28:00.125Z,79.00
2022-11-19T15:30:39.296Z,189.13
2022-11-19T15:33:36.192Z,85.53
2022-11-19T15:36:28.886Z,81.30
2022-11-19T15:39:03.781Z,89.90
2022-11-19T15:41:38.266Z,102.77
2022-11-19T15:44:10.314Z,103.43
2022-11-19T15:46:48.024Z,84.83
2022-11-19T15:49:22.131Z,79.33
2022-11-19T15:52:17.564Z,97.77
2022-11-19T15:54:46.860Z,88.20
2022-11-19T15:57:24.846Z,104.20
2022-11-19T15:59:58.119Z,101.80
2022-11-19T16:02:34.513Z,98.50
2022-11-19T16:05:03.271Z,91.40
2022-11-19T16:07:33.845Z,76.00
2022-11-19T16:10:02.754Z,91.33
2022-11-19T16:12:48.903Z,92.20
2022-11-19T16:15:37.555Z,87.57
2022-11-19T16:18:13.334Z,86.83
2022-11-19T16:20:43.579Z,98.50
2022-11-19T16:23:17.827Z,101.00
2022-11-19T16:25:47.151Z,105.30
2022-11-19T16:28:17.485Z,108.13
2022-11-19T16:30:48.957Z,102.63
2022-11-19T16:33:21.033Z,96.77
2022-11-19T16:35:53.135Z,85.90
2022-11-19T16:38:29.219Z,76.60
2022-11-19T16:41:30.635Z,81.77
2022-11-19T16:44:00.415Z,86.63
2022-11-19T16:46:31.151Z,94.70
2022-11-19T16:49:01.416Z,86.23
2022-11-19T16:51:40.831Z,90.47
2022-11-19T16:54:12.068Z,80.77
2022-11-19T16:56:44.504Z,94.90
2022-11-19T16:59:21.691Z,98.03
2022-11-19T17:01:55.478Z,92.60
2022-11-19T17:04:26.767Z,95.70
2022-11-19T17:06:56.119Z,103.77
2022-11-19T17:09:37.267Z,88.80
2022-11-19T17:12:24.013Z,96.67
2022-11-19T17:14:55.922Z,87.27
2022-11-19T17:17:36.904Z,98.13
2022-11-19T17:20:41.461Z,103.27
2022-11-19T17:23:17.509Z,103.73
2022-11-19T17:25:54.664Z,92.50
2022-11-19T17:28:35.269Z,88.60
2022-11-19T17:31:07.226Z,93.23
2022-11-19T17:33:36.931Z,92.33
2022-11-19T17:36:12.572Z,92.07
2022-11-19T17:38:41.277Z,87.47
2022-11-19T17:41:16.547Z,87.93
2022-11-19T17:44:03.081Z,80.63
2022-11-19T17:46:31.864Z,91.93
2022-11-19T17:49:00.713Z,106.77
2022-11-19T17:51:29.476Z,104.53
2022-11-19T17:53:58.257Z,110.83
2022-11-19T17:56:29.750Z,121.53
2022-11-19T17:58:59.880Z,104.93
2022-11-19T18:01:28.869Z,105.33
2022-11-19T18:03:57.609Z,65.85
2022-11-19T18:06:26.401Z,151.00
2022-11-19T18:08:55.055Z,149.07
2022-11-19T18:11:26.377Z,137.53
2022-11-19T18:13:59.961Z,134.53
2022-11-19T18:16:34.349Z,125.70
2022-11-19T18:19:03.229Z,116.17
2022-11-19T18:21:31.854Z,124.30
2022-11-19T18:24:00.536Z,115.57
2022-11-19T18:26:29.200Z,113.53
2022-11-19T18:28:59.279Z,111.13
2022-11-19T18:31:29.751Z,114.50
2022-11-19T18:33:58.729Z,119.53
2022-11-19T18:36:27.471Z,123.37
2022-11-19T18:38:56.878Z,125.17
2022-11-19T18:41:25.968Z,120.03
2022-11-19T18:44:12.082Z,119.37
2022-11-19T18:46:42.533Z,123.70
2022-11-19T18:49:11.290Z,123.20
2022-11-19T18:51:39.900Z,119.37
2022-11-19T18:54:08.569Z,118.47
2022-11-19T18:56:37.448Z,119.07
2022-11-19T18:59:06.207Z,124.00
2022-11-19T19:01:35.397Z,125.03
2022-11-19T19:04:05.705Z,122.07
2022-11-19T19:06:34.604Z,125.03
2022-11-19T19:09:03.444Z,118.63
2022-11-19T19:11:49.453Z,119.57
2022-11-19T19:14:18.480Z,113.10
2022-11-19T19:16:47.237Z,119.17
2022-11-19T19:19:19.469Z,127.53
2022-11-19T19:21:48.388Z,127.87
2022-11-19T19:24:17.552Z,119.57
2022-11-19T19:26:46.256Z,120.40
2022-11-19T19:29:14.877Z,115.60
2022-11-19T19:31:43.648Z,111.80
2022-11-19T19:34:12.809Z,121.80
2022-11-19T19:36:43.135Z,114.90
2022-11-19T19:39:11.807Z,118.57
2022-11-19T19:41:40.435Z,116.77
2022-11-19T19:44:10.541Z,116.97
2022-11-19T19:46:39.208Z,112.03
2022-11-19T19:49:08.241Z,115.03
2022-11-19T19:51:36.954Z,122.67
2022-11-19T19:54:07.589Z,112.33
2022-11-19T19:56:36.399Z,120.47
2022-11-19T19:59:05.254Z,114.73
2022-11-19T20:01:36.294Z,110.77
2022-11-19T20:04:06.641Z,123.53
2022-11-19T20:06:36.682Z,114.70
2022-11-19T20:09:21.800Z,108.63
2022-11-19T20:11:50.479Z,109.37
2022-11-19T20:14:19.217Z,126.73
2022-11-19T20:16:47.900Z,116.10
2022-11-19T20:19:16.671Z,119.97
2022-11-19T20:21:47.295Z,119.37
2022-11-19T20:24:18.836Z,102.57
2022-11-19T20:26:47.586Z,88.73
2022-11-19T20:29:17.845Z,86.23
2022-11-19T20:31:48.023Z,72.50
2022-11-19T20:34:18.046Z,67.23
2022-11-19T20:36:47.054Z,61.73
2022-11-19T20:39:17.232Z,67.40
2022-11-19T20:42:03.689Z,68.53
2022-11-19T20:44:32.617Z,73.73
2022-11-19T20:47:04.130Z,67.93
2022-11-19T20:49:36.031Z,74.47
2022-11-19T20:52:05.420Z,76.33
2022-11-19T20:54:37.088Z,84.17
2022-11-19T20:57:07.872Z,79.17
2022-11-19T20:59:36.785Z,78.13
2022-11-19T21:02:06.871Z,76.10
2022-11-19T21:04:37.356Z,77.13
2022-11-19T21:07:06.749Z,76.70
2022-11-19T21:09:37.659Z,72.77
2022-11-19T21:12:06.756Z,65.97
2022-11-19T21:14:35.364Z,53.90
2022-11-19T21:17:04.125Z,50.50
2022-11-19T21:19:32.866Z,51.03
2022-11-19T21:22:01.649Z,55.60
2022-11-19T21:24:30.726Z,49.57
2022-11-19T21:27:01.260Z,44.57
2022-11-19T21:29:30.097Z,46.30
2022-11-19T21:31:58.829Z,48.93
2022-11-19T21:34:27.559Z,50.23
2022-11-19T21:36:58.328Z,43.07
2022-11-19T21:39:27.496Z,49.20
2022-11-19T21:41:57.138Z,47.03
2022-11-19T21:44:27.295Z,49.03
2022-11-19T21:46:56.216Z,54.50
2022-11-19T21:49:24.873Z,59.43
2022-11-19T21:51:55.380Z,63.23
2022-11-19T21:54:24.165Z,65.87
2022-11-19T21:56:53.189Z,66.13
2022-11-19T21:59:22.144Z,69.60
2022-11-19T22:01:54.863Z,71.13
2022-11-19T22:04:23.856Z,90.23
2022-11-19T22:06:53.142Z,88.50
2022-11-19T22:09:22.048Z,84.43
2022-11-19T22:11:51.060Z,88.57
2022-11-19T22:14:19.785Z,90.37
2022-11-19T22:16:48.471Z,85.10
2022-11-19T22:19:19.500Z,84.30
2022-11-19T22:21:48.653Z,41.75
2022-11-19T22:27:03.811Z,47.60
2022-11-19T22:29:32.572Z,51.65
2022-11-19T22:32:01.208Z,186.93
2022-11-19T22:34:31.528Z,70.27
2022-11-19T22:37:00.869Z,69.67
2022-11-19T22:39:29.557Z,65.30
2022-11-19T22:41:58.261Z,64.53
2022-11-19T22:44:29.264Z,62.23
2022-11-19T22:47:00.069Z,58.77
2022-11-19T22:49:29.123Z,61.67
2022-11-19T22:51:59.328Z,59.73
2022-11-19T22:54:31.266Z,59.63
2022-11-19T22:56:59.964Z,55.37
2022-11-19T22:59:29.071Z,51.00
2022-11-19T23:01:57.684Z,47.83
2022-11-19T23:04:26.602Z,47.33
2022-11-19T23:06:55.670Z,49.63
2022-11-19T23:09:25.780Z,46.23
2022-11-19T23:12:11.706Z,45.57
2022-11-19T23:14:40.310Z,44.73
2022-11-19T23:17:08.959Z,43.17
2022-11-19T23:19:39.162Z,44.93
2022-11-19T23:22:07.980Z,51.63
2022-11-19T23:24:38.529Z,47.07
2022-11-19T23:27:07.173Z,44.03
2022-11-19T23:29:35.822Z,44.67
2022-11-19T23:32:04.892Z,45.90
2022-11-19T23:34:33.814Z,44.67
2022-11-19T23:37:02.699Z,46.17
2022-11-19T23:39:31.461Z,44.63
2022-11-19T23:42:01.556Z,44.23
2022-11-19T23:44:30.204Z,39.83
2022-11-19T23:46:58.997Z,42.87
2022-11-19T23:49:27.687Z,42.63
2022-11-19T23:51:56.250Z,44.30
2022-11-19T23:54:25.166Z,42.03
2022-11-19T23:56:53.816Z,44.67
2022-11-19T23:59:25.789Z,48.60
